createdAt,value
2022-12-28T00:00:02.385Z,5.90
2022-12-28T00:02:32.326Z,5.90
2022-12-28T00:05:00.870Z,5.90
2022-12-28T00:07:29.375Z,5.90
2022-12-28T00:09:57.815Z,5.90
2022-12-28T00:12:26.430Z,5.90
2022-12-28T00:14:54.915Z,5.90
2022-12-28T00:17:23.383Z,5.90
2022-12-28T00:19:53.283Z,6.00
2022-12-28T00:22:21.794Z,6.00
2022-12-28T00:24:50.333Z,6.00
2022-12-28T00:27:18.805Z,6.00
2022-12-28T00:29:47.360Z,6.00
2022-12-28T00:32:15.844Z,6.00
2022-12-28T00:34:44.356Z,6.10
2022-12-28T00:37:14.393Z,6.00
2022-12-28T00:39:43.410Z,6.00
2022-12-28T00:42:12.189Z,6.00
2022-12-28T00:44:41.051Z,6.00
2022-12-28T00:47:09.773Z,6.10
2022-12-28T00:49:38.308Z,6.10
2022-12-28T00:52:07.325Z,6.10
2022-12-28T00:54:37.227Z,6.10
2022-12-28T00:57:06.023Z,6.10
2022-12-28T00:59:34.562Z,6.10
2022-12-28T01:02:03.289Z,6.10
2022-12-28T01:04:31.890Z,6.10
2022-12-28T01:07:00.558Z,6.10
2022-12-28T01:09:29.106Z,6.10
2022-12-28T01:11:59.018Z,6.10
2022-12-28T01:14:27.604Z,6.10
2022-12-28T01:16:56.120Z,6.00
2022-12-28T01:19:25.333Z,6.10
2022-12-28T01:21:54.162Z,6.00
2022-12-28T01:24:22.970Z,6.00
2022-12-28T01:26:51.572Z,6.00
2022-12-28T01:29:21.511Z,5.90
2022-12-28T01:31:50.072Z,5.90
2022-12-28T01:34:19.086Z,5.90
2022-12-28T01:36:47.632Z,5.90
2022-12-28T01:39:16.206Z,5.90
2022-12-28T01:41:44.760Z,5.90
2022-12-28T01:44:47.034Z,5.80
2022-12-28T01:47:22.149Z,5.80
2022-12-28T01:49:56.581Z,5.70
2022-12-28T01:52:30.067Z,5.80
2022-12-28T01:55:04.444Z,5.80
2022-12-28T01:57:37.404Z,5.80
2022-12-28T02:00:10.957Z,5.80
2022-12-28T02:02:40.293Z,5.80
2022-12-28T02:05:09.897Z,5.70
2022-12-28T02:07:45.683Z,5.70
2022-12-28T02:10:42.996Z,5.70
2022-12-28T02:13:06.831Z,5.60
2022-12-28T02:15:36.815Z,5.60
2022-12-28T02:18:05.590Z,5.60
2022-12-28T02:20:44.096Z,5.60
2022-12-28T02:23:39.617Z,5.60
2022-12-28T02:26:36.903Z,5.60
2022-12-28T02:29:51.814Z,5.60
2022-12-28T02:32:51.631Z,5.60
2022-12-28T02:35:29.140Z,5.60
2022-12-28T02:38:02.670Z,5.60
2022-12-28T02:40:36.468Z,5.50
2022-12-28T02:43:05.354Z,5.50
2022-12-28T02:45:57.288Z,5.50
2022-12-28T02:48:43.835Z,5.50
2022-12-28T02:51:26.466Z,5.50
2022-12-28T02:54:37.401Z,5.50
2022-12-28T02:57:14.951Z,5.50
2022-12-28T02:59:56.260Z,5.50
2022-12-28T03:02:50.273Z,5.50
2022-12-28T03:05:43.943Z,5.50
2022-12-28T03:08:21.755Z,5.40
2022-12-28T03:10:57.573Z,5.40
2022-12-28T03:13:45.612Z,5.50
2022-12-28T03:16:19.788Z,5.50
2022-12-28T03:19:19.473Z,5.40
2022-12-28T03:22:06.660Z,5.40
2022-12-28T03:24:54.724Z,5.40
2022-12-28T03:27:41.664Z,5.40
2022-12-28T03:30:31.498Z,5.40
2022-12-28T03:33:01.062Z,5.30
2022-12-28T03:35:40.281Z,5.30
2022-12-28T03:38:13.949Z,5.30
2022-12-28T03:40:50.343Z,5.30
2022-12-28T03:43:42.609Z,5.30
2022-12-28T03:46:20.761Z,5.30
2022-12-28T03:48:50.202Z,5.30
2022-12-28T03:51:24.077Z,5.30
2022-12-28T03:53:53.108Z,5.30
2022-12-28T03:56:23.746Z,5.30
2022-12-28T03:58:52.913Z,5.30
2022-12-28T04:01:21.873Z,5.30
2022-12-28T04:03:50.495Z,5.30
2022-12-28T04:06:21.615Z,5.30
2022-12-28T04:08:50.078Z,5.30
2022-12-28T04:11:18.565Z,5.20
2022-12-28T04:13:47.465Z,5.30
2022-12-28T04:16:16.500Z,5.30
2022-12-28T04:18:45.566Z,5.30
2022-12-28T04:21:15.949Z,5.30
2022-12-28T04:23:45.946Z,5.30
2022-12-28T04:26:16.744Z,5.30
2022-12-28T04:28:45.400Z,5.30
2022-12-28T04:31:15.679Z,5.30
2022-12-28T04:33:44.231Z,5.30
2022-12-28T04:36:14.863Z,5.30
2022-12-28T04:38:45.276Z,5.40
2022-12-28T04:41:13.808Z,5.30
2022-12-28T04:43:42.374Z,5.40
2022-12-28T04:46:14.698Z,5.40
2022-12-28T04:48:43.747Z,5.40
2022-12-28T04:51:20.688Z,5.40
2022-12-28T04:53:52.308Z,5.40
2022-12-28T04:56:22.395Z,5.40
2022-12-28T04:58:54.952Z,5.40
2022-12-28T05:01:23.822Z,5.40
2022-12-28T05:03:58.083Z,5.40
2022-12-28T05:06:29.572Z,5.30
2022-12-28T05:08:59.558Z,5.40
2022-12-28T05:11:29.873Z,5.40
2022-12-28T05:13:58.762Z,5.40
2022-12-28T05:16:28.949Z,5.40
2022-12-28T05:18:58.215Z,5.50
2022-12-28T05:21:28.336Z,5.40
2022-12-28T05:23:58.734Z,5.50
2022-12-28T05:26:29.557Z,5.50
2022-12-28T05:28:59.097Z,5.50
2022-12-28T05:31:27.985Z,5.50
2022-12-28T05:33:56.796Z,5.50
2022-12-28T05:36:26.981Z,5.50
2022-12-28T05:38:57.075Z,5.60
2022-12-28T05:41:28.744Z,5.60
2022-12-28T05:43:57.943Z,5.60
2022-12-28T05:46:28.587Z,5.60
2022-12-28T05:48:57.396Z,5.70
2022-12-28T05:51:27.321Z,5.70
2022-12-28T05:53:56.207Z,5.60
2022-12-28T05:56:27.836Z,5.70
2022-12-28T05:58:58.007Z,5.70
2022-12-28T06:01:28.691Z,5.70
2022-12-28T06:03:59.578Z,5.70
2022-12-28T06:06:28.456Z,5.70
2022-12-28T06:08:57.188Z,5.80
2022-12-28T06:11:28.731Z,5.80
2022-12-28T06:13:58.836Z,5.80
2022-12-28T06:16:29.093Z,5.80
2022-12-28T06:18:58.187Z,5.90
2022-12-28T06:21:28.576Z,5.90
2022-12-28T06:23:58.941Z,5.90
2022-12-28T06:26:30.255Z,6.00
2022-12-28T06:28:59.310Z,6.00
2022-12-28T06:31:29.521Z,6.00
2022-12-28T06:33:59.935Z,6.00
2022-12-28T06:36:29.951Z,6.00
2022-12-28T06:39:00.012Z,6.00
2022-12-28T06:41:30.987Z,6.10
2022-12-28T06:44:00.637Z,6.10
2022-12-28T06:46:30.654Z,6.10
2022-12-28T06:48:59.987Z,6.10
2022-12-28T06:51:30.103Z,6.10
2022-12-28T06:53:58.816Z,6.20
2022-12-28T06:56:31.079Z,6.20
2022-12-28T06:59:03.870Z,6.20
2022-12-28T07:01:35.076Z,6.20
2022-12-28T07:04:05.217Z,6.30
2022-12-28T07:06:37.890Z,6.30
2022-12-28T07:09:08.296Z,6.30
2022-12-28T07:11:38.564Z,6.30
2022-12-28T07:14:07.246Z,6.30
2022-12-28T07:19:03.441Z,6.40
2022-12-28T07:21:34.985Z,6.40
2022-12-28T07:24:04.800Z,6.40
2022-12-28T07:26:34.939Z,6.40
2022-12-28T07:29:07.077Z,6.40
2022-12-28T07:31:44.141Z,6.50
2022-12-28T07:34:14.457Z,6.50
2022-12-28T07:36:42.971Z,6.50
2022-12-28T07:39:11.539Z,6.50
2022-12-28T07:41:40.085Z,6.50
2022-12-28T07:44:10.062Z,6.60
2022-12-28T07:46:39.230Z,6.60
2022-12-28T07:49:08.374Z,6.60
2022-12-28T07:51:38.476Z,6.60
2022-12-28T07:54:07.395Z,6.70
2022-12-28T07:59:05.985Z,6.70
2022-12-28T08:01:37.776Z,6.70
2022-12-28T08:04:09.335Z,6.70
2022-12-28T08:06:39.986Z,6.80
2022-12-28T08:09:10.167Z,6.80
2022-12-28T08:11:40.176Z,6.80
2022-12-28T08:14:09.602Z,6.80
2022-12-28T08:16:41.363Z,6.90
2022-12-28T08:19:10.711Z,6.90
2022-12-28T08:21:40.802Z,6.90
2022-12-28T08:24:10.537Z,6.90
2022-12-28T08:26:40.689Z,7.00
2022-12-28T08:29:12.608Z,7.00
2022-12-28T08:31:45.501Z,7.00
2022-12-28T08:34:15.202Z,7.00
2022-12-28T08:36:43.952Z,7.10
2022-12-28T08:39:13.025Z,7.10
2022-12-28T08:41:41.520Z,7.10
2022-12-28T08:44:10.025Z,7.10
2022-12-28T08:46:40.640Z,7.20
2022-12-28T08:49:10.722Z,7.20
2022-12-28T08:51:41.806Z,7.20
2022-12-28T08:54:11.264Z,7.20
2022-12-28T08:56:41.374Z,7.30
2022-12-28T08:59:10.373Z,7.30
2022-12-28T09:01:44.128Z,7.30
2022-12-28T09:04:16.555Z,7.40
2022-12-28T09:06:45.422Z,7.40
2022-12-28T09:09:15.874Z,7.40
2022-12-28T09:11:45.075Z,7.40
2022-12-28T09:14:22.711Z,7.40
2022-12-28T09:16:52.823Z,7.50
2022-12-28T09:19:23.517Z,7.50
2022-12-28T09:21:53.531Z,7.50
2022-12-28T09:24:22.207Z,7.60
2022-12-28T09:26:53.275Z,7.60
2022-12-28T09:29:21.802Z,7.60
2022-12-28T09:31:50.273Z,7.70
2022-12-28T09:34:36.591Z,7.70
2022-12-28T09:37:07.391Z,7.70
2022-12-28T09:39:36.051Z,7.70
2022-12-28T09:42:08.331Z,7.80
2022-12-28T09:44:48.682Z,7.80
2022-12-28T09:47:26.712Z,7.80
2022-12-28T09:50:06.744Z,7.80
2022-12-28T09:52:44.857Z,7.90
2022-12-28T09:55:18.353Z,7.90
2022-12-28T09:57:50.189Z,8.00
2022-12-28T10:00:21.506Z,8.00
2022-12-28T10:02:54.112Z,8.00
2022-12-28T10:05:23.088Z,8.10
2022-12-28T10:07:54.381Z,8.10
2022-12-28T10:10:24.914Z,8.10
2022-12-28T10:12:54.685Z,8.10
2022-12-28T10:15:25.729Z,8.10
2022-12-28T10:17:54.269Z,8.20
2022-12-28T10:20:24.082Z,8.20
2022-12-28T10:22:57.061Z,8.20
2022-12-28T10:25:27.604Z,8.30
2022-12-28T10:27:57.076Z,8.30
2022-12-28T10:30:27.873Z,8.40
2022-12-28T10:33:02.715Z,8.40
2022-12-28T10:35:38.866Z,8.40
2022-12-28T10:38:21.402Z,8.40
2022-12-28T10:41:00.005Z,8.40
2022-12-28T10:43:33.887Z,8.50
2022-12-28T10:46:03.965Z,8.50
2022-12-28T10:48:34.634Z,8.50
2022-12-28T10:51:13.472Z,8.50
2022-12-28T10:53:48.035Z,8.50
2022-12-28T10:56:25.625Z,8.50
2022-12-28T10:58:55.144Z,8.60
2022-12-28T11:01:28.315Z,8.60
2022-12-28T11:04:03.602Z,8.60
2022-12-28T11:06:33.722Z,8.60
2022-12-28T11:09:16.264Z,8.60
2022-12-28T11:11:46.302Z,8.60
2022-12-28T11:14:22.226Z,8.60
2022-12-28T11:16:50.858Z,8.70
2022-12-28T11:19:19.496Z,8.70
2022-12-28T11:21:49.274Z,8.70
2022-12-28T11:24:21.246Z,8.70
2022-12-28T11:26:51.823Z,8.70
2022-12-28T11:29:21.307Z,8.80
2022-12-28T11:31:55.062Z,8.80
2022-12-28T11:34:28.794Z,8.80
2022-12-28T11:36:58.144Z,8.80
2022-12-28T11:39:45.282Z,8.80
2022-12-28T11:42:39.401Z,8.80
2022-12-28T11:45:14.750Z,8.80
2022-12-28T11:47:43.815Z,8.80
2022-12-28T11:50:49.552Z,8.80
2022-12-28T11:53:24.661Z,8.80
2022-12-28T11:56:06.699Z,8.80
2022-12-28T11:59:20.163Z,8.80
2022-12-28T12:01:52.729Z,8.80
2022-12-28T12:04:37.460Z,8.80
2022-12-28T12:07:31.891Z,8.80
2022-12-28T12:10:30.066Z,8.80
2022-12-28T12:12:59.404Z,8.80
2022-12-28T12:15:35.336Z,8.80
2022-12-28T12:18:07.522Z,8.80
2022-12-28T12:20:50.267Z,8.80
2022-12-28T12:23:40.604Z,8.80
2022-12-28T12:26:22.387Z,8.80
2022-12-28T12:28:52.725Z,8.80
2022-12-28T12:31:29.971Z,8.80
2022-12-28T12:34:07.790Z,8.80
2022-12-28T12:37:09.355Z,8.90
2022-12-28T12:40:05.030Z,8.90
2022-12-28T12:42:44.584Z,8.90
2022-12-28T12:45:20.975Z,8.90
2022-12-28T12:48:21.265Z,8.90
2022-12-28T12:51:05.274Z,8.90
2022-12-28T12:53:59.985Z,8.90
2022-12-28T12:56:41.698Z,8.90
2022-12-28T12:59:28.065Z,8.90
2022-12-28T13:02:04.884Z,8.90
2022-12-28T13:04:36.646Z,8.90
2022-12-28T13:07:16.460Z,8.90
2022-12-28T13:09:45.588Z,8.90
2022-12-28T13:12:17.040Z,8.90
2022-12-28T13:14:47.113Z,8.90
2022-12-28T13:17:18.866Z,8.90
2022-12-28T13:19:47.892Z,9.00
2022-12-28T13:22:32.198Z,9.00
2022-12-28T13:25:01.072Z,9.00
2022-12-28T13:27:35.466Z,9.00
2022-12-28T13:30:05.261Z,9.00
2022-12-28T13:32:38.633Z,9.00
2022-12-28T13:35:19.715Z,9.00
2022-12-28T13:38:05.518Z,9.00
2022-12-28T13:40:35.806Z,9.00
2022-12-28T13:43:23.355Z,9.00
2022-12-28T13:45:55.912Z,8.90
2022-12-28T13:48:25.477Z,8.90
2022-12-28T13:50:54.859Z,8.90
2022-12-28T13:53:28.986Z,8.90
2022-12-28T13:56:05.021Z,9.00
2022-12-28T13:58:37.316Z,8.90
2022-12-28T14:01:11.102Z,9.00
2022-12-28T14:03:45.948Z,9.00
2022-12-28T14:06:16.916Z,9.00
2022-12-28T14:08:47.809Z,9.00
2022-12-28T14:11:18.148Z,9.00
2022-12-28T14:13:47.115Z,9.00
2022-12-28T14:16:16.428Z,9.00
2022-12-28T14:18:46.650Z,9.00
2022-12-28T14:21:15.277Z,9.00
2022-12-28T14:23:44.205Z,9.00
2022-12-28T14:26:22.373Z,9.00
2022-12-28T14:28:53.598Z,9.00
2022-12-28T14:31:25.317Z,9.00
2022-12-28T14:33:57.499Z,9.00
2022-12-28T14:36:29.852Z,9.00
2022-12-28T14:39:04.798Z,9.10
2022-12-28T14:41:40.657Z,9.10
2022-12-28T14:44:17.747Z,9.00
2022-12-28T14:46:46.354Z,9.10
2022-12-28T14:49:36.256Z,9.10
2022-12-28T14:52:42.976Z,9.00
2022-12-28T14:55:38.576Z,9.00
2022-12-28T14:58:16.139Z,9.10
2022-12-28T15:00:58.219Z,9.00
2022-12-28T15:03:29.427Z,9.00
2022-12-28T15:06:00.171Z,9.00
2022-12-28T15:08:29.472Z,9.00
2022-12-28T15:11:01.193Z,9.00
2022-12-28T15:13:31.478Z,9.00
2022-12-28T15:16:02.389Z,9.00
2022-12-28T15:18:33.282Z,9.00
2022-12-28T15:21:05.744Z,9.00
2022-12-28T15:23:35.766Z,9.00
2022-12-28T15:26:10.727Z,9.00
2022-12-28T15:28:42.110Z,9.00
2022-12-28T15:31:18.629Z,9.00
2022-12-28T15:33:49.984Z,9.00
2022-12-28T15:36:22.302Z,9.00
2022-12-28T15:38:57.617Z,9.00
2022-12-28T15:41:43.572Z,9.00
2022-12-28T15:44:17.820Z,9.00
2022-12-28T15:46:50.303Z,9.00
2022-12-28T15:49:19.713Z,9.00
2022-12-28T15:51:49.006Z,9.00
2022-12-28T15:54:19.637Z,9.00
2022-12-28T15:56:54.880Z,9.00
2022-12-28T15:59:25.368Z,9.00
2022-12-28T16:01:54.382Z,9.00
2022-12-28T16:04:23.586Z,9.00
2022-12-28T16:06:53.291Z,9.00
2022-12-28T16:09:22.797Z,9.00
2022-12-28T16:11:55.267Z,9.00
2022-12-28T16:14:28.286Z,9.00
2022-12-28T16:16:58.897Z,9.00
2022-12-28T16:19:30.629Z,9.00
2022-12-28T16:21:59.119Z,8.90
2022-12-28T16:24:29.182Z,8.80
2022-12-28T16:27:00.077Z,8.80
2022-12-28T16:29:30.291Z,8.80
2022-12-28T16:32:02.069Z,8.80
2022-12-28T16:34:34.102Z,8.80
2022-12-28T16:37:03.505Z,8.80
2022-12-28T16:39:33.346Z,8.70
2022-12-28T16:42:02.492Z,8.70
2022-12-28T16:44:34.193Z,8.70
2022-12-28T16:47:04.087Z,8.70
2022-12-28T16:49:32.985Z,8.70
2022-12-28T16:52:04.455Z,8.70
2022-12-28T16:54:33.626Z,8.70
2022-12-28T16:57:02.880Z,8.70
2022-12-28T16:59:36.144Z,8.60
2022-12-28T17:02:05.943Z,8.60
2022-12-28T17:04:35.090Z,8.60
2022-12-28T17:07:04.225Z,8.50
2022-12-28T17:09:33.800Z,8.50
2022-12-28T17:12:02.652Z,8.50
2022-12-28T17:14:37.705Z,8.40
2022-12-28T17:17:07.533Z,8.40
2022-12-28T17:19:37.079Z,8.40
2022-12-28T17:22:06.814Z,8.40
2022-12-28T17:24:36.266Z,8.40
2022-12-28T17:27:09.020Z,8.40
2022-12-28T17:29:44.144Z,8.40
2022-12-28T17:32:13.648Z,8.30
2022-12-28T17:34:47.186Z,8.30
2022-12-28T17:37:19.380Z,8.30
2022-12-28T17:39:49.052Z,8.30
2022-12-28T17:42:22.582Z,8.30
2022-12-28T17:44:53.064Z,8.30
2022-12-28T17:47:26.050Z,8.30
2022-12-28T17:49:55.252Z,8.30
2022-12-28T17:52:24.787Z,8.40
2022-12-28T17:54:54.725Z,8.40
2022-12-28T17:57:23.848Z,8.40
2022-12-28T17:59:56.316Z,8.40
2022-12-28T18:02:28.288Z,8.40
2022-12-28T18:04:59.462Z,8.40
2022-12-28T18:07:30.609Z,8.40
2022-12-28T18:10:02.057Z,8.40
2022-12-28T18:12:30.928Z,8.40
2022-12-28T18:15:00.992Z,8.50
2022-12-28T18:17:30.141Z,8.50
2022-12-28T18:19:59.354Z,8.50
2022-12-28T18:22:28.376Z,8.50
2022-12-28T18:24:57.785Z,8.60
2022-12-28T18:27:28.222Z,8.60
2022-12-28T18:29:57.225Z,8.60
2022-12-28T18:32:30.178Z,8.60
2022-12-28T18:34:58.967Z,8.60
2022-12-28T18:37:31.248Z,8.60
2022-12-28T18:40:00.257Z,8.60
2022-12-28T18:42:29.126Z,8.60
2022-12-28T18:44:58.503Z,8.50
2022-12-28T18:47:33.004Z,8.60
2022-12-28T18:50:05.521Z,8.60
2022-12-28T18:52:36.643Z,8.50
2022-12-28T18:55:06.183Z,8.60
2022-12-28T18:57:34.950Z,8.50
2022-12-28T19:00:04.245Z,8.50
2022-12-28T19:02:35.353Z,8.50
2022-12-28T19:05:04.562Z,8.50
2022-12-28T19:07:33.478Z,8.50
2022-12-28T19:10:16.332Z,8.50
2022-12-28T19:12:47.228Z,8.40
2022-12-28T19:15:16.608Z,8.40
2022-12-28T19:17:52.389Z,8.50
2022-12-28T19:20:21.674Z,8.40
2022-12-28T19:22:54.755Z,8.40
2022-12-28T19:25:23.722Z,8.40
2022-12-28T19:27:53.785Z,8.40
2022-12-28T19:30:23.224Z,8.40
2022-12-28T19:32:55.849Z,8.40
2022-12-28T19:35:24.947Z,8.30
2022-12-28T19:37:53.929Z,8.40
2022-12-28T19:40:26.089Z,8.30
2022-12-28T19:42:55.006Z,8.30
2022-12-28T19:45:23.977Z,8.30
2022-12-28T19:47:54.573Z,8.30
2022-12-28T19:50:23.573Z,8.30
2022-12-28T19:52:55.246Z,8.30
2022-12-28T19:55:25.110Z,8.20
2022-12-28T19:57:54.149Z,8.20
2022-12-28T20:00:29.214Z,8.20
2022-12-28T20:03:00.059Z,8.20
2022-12-28T20:05:30.238Z,8.20
2022-12-28T20:08:01.836Z,8.20
2022-12-28T20:10:31.320Z,8.20
2022-12-28T20:13:00.752Z,8.10
2022-12-28T20:15:29.599Z,8.10
2022-12-28T20:18:00.368Z,8.10
2022-12-28T20:20:40.677Z,8.20
2022-12-28T20:23:18.355Z,8.10
2022-12-28T20:25:52.528Z,8.10
2022-12-28T20:28:22.680Z,8.10
2022-12-28T20:30:54.616Z,8.10
2022-12-28T20:33:24.971Z,8.10
2022-12-28T20:36:06.228Z,8.10
2022-12-28T20:38:35.519Z,8.10
2022-12-28T20:41:10.011Z,8.10
2022-12-28T20:43:37.984Z,8.10
2022-12-28T20:46:12.565Z,8.10
2022-12-28T20:48:42.863Z,8.10
2022-12-28T20:51:12.046Z,8.10
2022-12-28T20:53:43.664Z,8.10
2022-12-28T20:56:18.664Z,8.10
2022-12-28T20:58:48.327Z,8.10
2022-12-28T21:01:18.464Z,8.10
2022-12-28T21:03:49.820Z,8.10
2022-12-28T21:06:18.872Z,8.10
2022-12-28T21:08:47.871Z,8.10
2022-12-28T21:11:17.180Z,8.10
2022-12-28T21:13:46.040Z,8.10
2022-12-28T21:16:16.125Z,8.10
2022-12-28T21:18:45.211Z,8.10
2022-12-28T21:21:18.388Z,8.10
2022-12-28T21:23:47.192Z,8.10
2022-12-28T21:26:17.468Z,8.10
2022-12-28T21:28:47.042Z,8.10
2022-12-28T21:31:16.371Z,8.10
2022-12-28T21:33:45.037Z,8.10
2022-12-28T21:36:17.232Z,8.10
2022-12-28T21:38:47.094Z,8.10
2022-12-28T21:41:17.307Z,8.10
2022-12-28T21:43:51.687Z,8.10
2022-12-28T21:46:20.261Z,8.10
2022-12-28T21:48:48.727Z,8.10
2022-12-28T21:51:32.468Z,8.10
2022-12-28T21:54:02.096Z,8.10
2022-12-28T21:56:30.835Z,8.10
2022-12-28T21:59:00.092Z,8.10
2022-12-28T22:01:46.801Z,8.10
2022-12-28T22:04:34.069Z,8.10
2022-12-28T22:07:04.661Z,8.10
2022-12-28T22:09:52.589Z,8.10
2022-12-28T22:12:37.259Z,8.10
2022-12-28T22:15:27.317Z,8.10
2022-12-28T22:17:57.012Z,8.10
2022-12-28T22:20:26.848Z,8.10
2022-12-28T22:22:58.890Z,8.10
2022-12-28T22:25:28.696Z,8.10
2022-12-28T22:27:57.469Z,8.10
2022-12-28T22:30:27.412Z,8.10
2022-12-28T22:32:56.057Z,8.10
2022-12-28T22:35:24.934Z,8.10
2022-12-28T22:37:53.512Z,8.20
2022-12-28T22:40:23.460Z,8.20
2022-12-28T22:42:52.075Z,8.20
2022-12-28T22:45:23.120Z,8.20
2022-12-28T22:47:54.252Z,8.20
2022-12-28T22:50:23.056Z,8.20
2022-12-28T22:52:51.495Z,8.30
2022-12-28T22:55:24.313Z,8.30
2022-12-28T22:57:52.796Z,8.30
2022-12-28T23:00:21.421Z,8.30
2022-12-28T23:02:50.312Z,8.30
2022-12-28T23:05:18.952Z,8.30
2022-12-28T23:07:47.458Z,8.30
2022-12-28T23:10:16.059Z,8.30
2022-12-28T23:12:45.940Z,8.30
2022-12-28T23:15:16.250Z,8.30
2022-12-28T23:17:44.878Z,8.30
2022-12-28T23:20:31.366Z,8.40
2022-12-28T23:23:17.213Z,8.40
2022-12-28T23:26:03.233Z,8.40
2022-12-28T23:28:37.019Z,8.50
2022-12-28T23:31:05.964Z,8.50
2022-12-28T23:33:34.612Z,8.60
2022-12-28T23:36:03.930Z,8.60
2022-12-28T23:38:33.630Z,8.60
2022-12-28T23:41:24.382Z,8.70
2022-12-28T23:43:54.287Z,8.70
2022-12-28T23:46:22.795Z,8.70
2022-12-28T23:48:51.323Z,8.70
2022-12-28T23:51:19.861Z,8.70
2022-12-28T23:53:48.314Z,8.70
2022-12-28T23:56:16.856Z,8.80
2022-12-28T23:58:45.390Z,8.80
